Time;durP1;ratioP1;P1;durP2;ratioP2;P2;SDS_P1;SDS_P2;PMS_P1;PMS_P2;Temp;Humidity;BMP_temperature;BMP_pressure;BME280_temperature;BME280_humidity;BME280_pressure;Samples;Min_cycle;Max_cycle;Signal;HPM_P1;HPM_P2
2021/06/03 00:00:23;;;;;;;4.40;4.00;;;18.70;99.90;;;;;;5006309;28;21008;-54
2021/06/03 00:02:50;;;;;;;5.93;4.30;;;18.60;99.90;;;;;;5006493;28;20466;-54
2021/06/03 00:05:19;;;;;;;5.47;3.80;;;18.70;99.90;;;;;;5011870;28;20441;-54
2021/06/03 00:07:47;;;;;;;5.53;4.10;;;18.70;99.90;;;;;;5009639;28;20511;-54
2021/06/03 00:10:15;;;;;;;5.20;4.10;;;18.70;99.90;;;;;;5006981;28;20489;-54
2021/06/03 00:12:41;;;;;;;4.43;4.03;;;18.70;99.90;;;;;;5010255;28;20522;-54
2021/06/03 00:15:11;;;;;;;5.77;4.20;;;18.70;99.90;;;;;;4996462;28;20465;-54
2021/06/03 00:17:38;;;;;;;4.83;4.30;;;18.60;99.90;;;;;;5001259;28;20464;-54
2021/06/03 00:20:07;;;;;;;5.10;4.50;;;18.60;99.90;;;;;;5008150;28;20982;-54
2021/06/03 00:22:33;;;;;;;11.80;5.20;;;18.50;99.90;;;;;;5004894;28;20492;-54
2021/06/03 00:25:01;;;;;;;7.87;5.97;;;18.40;99.90;;;;;;5011967;28;20446;-54
2021/06/03 00:27:27;;;;;;;8.00;5.80;;;18.40;99.90;;;;;;5001736;28;20485;-54
2021/06/03 00:29:54;;;;;;;13.90;6.70;;;18.40;99.90;;;;;;5009438;28;20490;-54
2021/06/03 00:32:21;;;;;;;6.77;5.50;;;18.30;99.90;;;;;;5009703;28;20461;-54
2021/06/03 00:34:47;;;;;;;6.67;5.80;;;18.30;99.90;;;;;;5002791;28;20821;-54
2021/06/03 00:37:14;;;;;;;9.20;6.47;;;18.20;99.90;;;;;;5003339;28;20513;-54
2021/06/03 00:39:40;;;;;;;17.43;7.50;;;17.90;99.90;;;;;;5009570;28;20974;-54
2021/06/03 00:42:08;;;;;;;6.30;5.43;;;17.80;99.90;;;;;;5007688;28;20959;-55
2021/06/03 00:44:35;;;;;;;5.20;4.70;;;17.80;99.90;;;;;;4993529;28;20474;-54
2021/06/03 00:47:02;;;;;;;4.93;4.47;;;17.80;99.90;;;;;;5002095;28;20478;-54
2021/06/03 00:49:28;;;;;;;5.03;4.60;;;17.80;99.90;;;;;;5003829;28;20493;-54
2021/06/03 00:51:55;;;;;;;4.77;4.37;;;17.80;99.90;;;;;;4995136;28;20502;-54
2021/06/03 00:54:21;;;;;;;5.53;4.93;;;17.80;99.90;;;;;;5002436;28;20465;-54
2021/06/03 00:56:48;;;;;;;5.97;4.63;;;17.70;99.90;;;;;;5010938;28;20488;-54
2021/06/03 00:59:16;;;;;;;5.37;4.87;;;17.80;99.90;;;;;;5008453;28;20470;-54
2021/06/03 01:01:42;;;;;;;4.83;4.43;;;17.70;99.90;;;;;;5012706;28;20562;-54
2021/06/03 01:04:09;;;;;;;5.00;4.50;;;17.90;99.90;;;;;;5006777;28;20449;-54
2021/06/03 01:06:36;;;;;;;5.87;5.30;;;17.80;99.90;;;;;;5007603;28;20485;-54
2021/06/03 01:09:07;;;;;;;7.57;4.77;;;17.60;99.90;;;;;;5011535;28;20475;-54
2021/06/03 01:11:40;;;;;;;5.53;4.50;;;17.50;99.90;;;;;;5012642;28;20489;-54
2021/06/03 01:14:15;;;;;;;6.37;4.80;;;17.40;99.90;;;;;;5011401;28;20537;-54
2021/06/03 01:16:43;;;;;;;4.93;4.40;;;17.30;99.90;;;;;;5005279;28;20514;-54
2021/06/03 01:19:12;;;;;;;6.40;4.90;;;17.20;99.90;;;;;;5012576;28;20472;-54
2021/06/03 01:21:46;;;;;;;5.50;5.00;;;17.30;99.90;;;;;;5009715;28;20482;-54
2021/06/03 01:24:24;;;;;;;5.70;5.10;;;17.30;99.90;;;;;;5014900;28;20440;-56
2021/06/03 01:26:53;;;;;;;5.40;4.87;;;17.30;99.90;;;;;;5012772;28;20484;-54
2021/06/03 01:29:20;;;;;;;7.50;6.17;;;17.30;99.90;;;;;;5005819;28;20854;-54
2021/06/03 01:31:49;;;;;;;7.63;5.10;;;17.40;99.90;;;;;;5006851;28;20511;-54
2021/06/03 01:34:16;;;;;;;7.80;5.30;;;17.40;99.90;;;;;;5012614;28;20473;-54
2021/06/03 01:36:43;;;;;;;5.97;5.37;;;17.30;99.90;;;;;;5010457;28;20464;-54
2021/06/03 01:39:10;;;;;;;5.50;5.00;;;17.30;99.90;;;;;;5012772;28;20536;-54
2021/06/03 01:41:39;;;;;;;6.00;4.80;;;17.20;99.90;;;;;;5007278;28;20488;-54
2021/06/03 01:44:06;;;;;;;4.70;4.30;;;17.20;99.90;;;;;;5014332;28;20835;-54
2021/06/03 01:46:33;;;;;;;6.80;5.63;;;17.30;99.90;;;;;;5011125;28;20998;-53
2021/06/03 01:49:00;;;;;;;8.40;4.93;;;17.20;99.90;;;;;;5003727;28;20477;-54
2021/06/03 01:51:27;;;;;;;6.23;5.63;;;17.10;99.90;;;;;;5001498;28;20502;-54
2021/06/03 01:53:57;;;;;;;5.83;5.20;;;17.10;99.90;;;;;;5007974;28;20446;-53
2021/06/03 01:56:25;;;;;;;6.00;5.00;;;16.90;99.90;;;;;;5013643;28;20448;-56
2021/06/03 01:58:53;;;;;;;6.30;5.60;;;17.00;99.90;;;;;;5005311;28;20950;-55
2021/06/03 02:01:21;;;;;;;5.50;5.00;;;17.00;99.90;;;;;;5003217;28;20490;-55
2021/06/03 02:03:47;;;;;;;7.90;5.83;;;17.10;99.90;;;;;;5008421;28;20963;-55
2021/06/03 02:06:14;;;;;;;6.50;5.20;;;17.10;99.90;;;;;;5011228;28;20477;-55
2021/06/03 02:08:41;;;;;;;6.60;5.87;;;17.00;99.90;;;;;;5006010;28;20470;-55
2021/06/03 02:11:08;;;;;;;6.23;5.17;;;17.00;99.90;;;;;;5011443;28;20492;-55
2021/06/03 02:13:38;;;;;;;6.20;5.27;;;17.10;99.90;;;;;;5004869;28;20480;-54
2021/06/03 02:16:13;;;;;;;6.50;5.20;;;17.10;99.90;;;;;;5010245;28;21115;-53
2021/06/03 02:18:44;;;;;;;6.50;5.27;;;17.00;99.90;;;;;;5008102;28;20500;-53
2021/06/03 02:21:11;;;;;;;8.30;5.30;;;17.00;99.90;;;;;;5013858;28;21025;-54
2021/06/03 02:23:38;;;;;;;7.17;5.57;;;16.90;99.90;;;;;;5008039;28;20470;-54
2021/06/03 02:26:05;;;;;;;5.23;4.67;;;16.80;99.90;;;;;;5002449;28;20483;-53
2021/06/03 02:28:32;;;;;;;5.90;5.10;;;16.90;99.90;;;;;;5008003;28;20841;-54
2021/06/03 02:31:00;;;;;;;5.80;5.20;;;16.80;99.90;;;;;;5002650;28;20487;-54
2021/06/03 02:33:28;;;;;;;7.10;6.07;;;16.90;99.90;;;;;;4999349;28;20477;-54
2021/06/03 02:35:55;;;;;;;6.70;5.97;;;16.90;99.90;;;;;;5012495;28;20473;-54
2021/06/03 02:38:23;;;;;;;7.00;5.60;;;17.00;99.90;;;;;;5004570;28;20967;-53
2021/06/03 02:40:52;;;;;;;5.93;5.33;;;16.90;99.90;;;;;;5013222;28;20524;-54
2021/06/03 02:43:19;;;;;;;9.03;5.70;;;16.90;99.90;;;;;;5001935;28;20507;-53
2021/06/03 02:45:45;;;;;;;5.80;5.20;;;17.00;99.90;;;;;;5002961;28;20461;-53
2021/06/03 02:48:12;;;;;;;5.80;4.80;;;17.00;99.90;;;;;;5007968;28;20466;-53
2021/06/03 02:50:40;;;;;;;6.40;5.50;;;17.00;99.90;;;;;;5036196;22;20492;-51
2021/06/03 02:53:07;;;;;;;5.60;5.03;;;16.90;99.90;;;;;;5027836;28;20526;-51
2021/06/03 02:55:34;;;;;;;5.50;5.00;;;16.90;99.90;;;;;;5021062;28;20453;-51
2021/06/03 02:58:01;;;;;;;7.37;5.17;;;16.90;99.90;;;;;;5020889;28;20462;-51
2021/06/03 03:00:30;;;;;;;5.43;4.73;;;16.90;99.90;;;;;;5023764;28;20493;-51
2021/06/03 03:02:56;;;;;;;6.10;5.00;;;16.90;99.90;;;;;;5020441;28;20521;-51
2021/06/03 03:05:23;;;;;;;5.77;4.70;;;16.80;99.90;;;;;;5027388;28;20468;-51
2021/06/03 03:07:51;;;;;;;7.23;6.53;;;16.90;99.90;;;;;;5019544;28;20492;-51
2021/06/03 03:10:20;;;;;;;17.83;11.90;;;16.70;99.90;;;;;;5022307;28;20456;-51
2021/06/03 03:12:47;;;;;;;12.33;9.17;;;16.70;99.90;;;;;;5020918;28;20489;-50
2021/06/03 03:15:15;;;;;;;9.60;8.50;;;16.80;99.90;;;;;;5021776;28;20496;-50
2021/06/03 03:17:42;;;;;;;6.97;6.10;;;16.80;99.90;;;;;;5021933;28;20463;-51
2021/06/03 03:20:11;;;;;;;6.37;5.40;;;16.60;99.90;;;;;;5021228;28;20522;-51
2021/06/03 03:22:38;;;;;;;8.73;5.53;;;16.50;99.90;;;;;;5019818;28;20465;-51
2021/06/03 03:25:09;;;;;;;7.60;5.57;;;16.40;99.90;;;;;;5022408;28;20472;-51
2021/06/03 03:27:36;;;;;;;5.50;4.97;;;16.40;99.90;;;;;;5022252;28;20477;-51
2021/06/03 03:30:04;;;;;;;5.80;5.23;;;16.40;99.90;;;;;;5020364;28;20829;-51
2021/06/03 03:32:31;;;;;;;6.40;5.70;;;16.40;99.90;;;;;;5021799;28;20469;-50
2021/06/03 03:34:59;;;;;;;6.07;5.37;;;16.40;99.90;;;;;;5020010;28;20465;-50
2021/06/03 03:37:25;;;;;;;5.87;4.97;;;16.50;99.90;;;;;;5020618;28;20457;-50
2021/06/03 03:39:52;;;;;;;8.63;5.60;;;16.50;99.90;;;;;;5020372;28;20949;-50
2021/06/03 03:42:20;;;;;;;5.57;4.63;;;16.50;99.90;;;;;;5021173;28;20480;-51
2021/06/03 03:44:46;;;;;;;4.80;4.40;;;16.50;99.90;;;;;;5019603;28;20468;-51
2021/06/03 03:47:13;;;;;;;5.63;5.00;;;16.50;99.90;;;;;;5022434;28;20488;-50
2021/06/03 03:49:39;;;;;;;7.20;5.67;;;16.50;99.90;;;;;;5021677;28;20531;-51
2021/06/03 03:52:06;;;;;;;9.50;7.50;;;16.50;99.90;;;;;;5018949;28;20488;-50
2021/06/03 03:54:33;;;;;;;5.63;5.00;;;16.50;99.90;;;;;;5021759;28;20465;-51
2021/06/03 03:57:00;;;;;;;7.27;5.87;;;16.50;99.90;;;;;;5021742;28;20452;-50
2021/06/03 03:59:28;;;;;;;6.53;5.43;;;16.40;99.90;;;;;;5018910;28;20464;-51
2021/06/03 04:01:54;;;;;;;10.30;9.20;;;16.50;99.90;;;;;;5019890;28;20549;-51
2021/06/03 04:04:21;;;;;;;11.10;7.80;;;16.40;99.90;;;;;;5019926;28;20461;-50
2021/06/03 04:06:49;;;;;;;6.50;5.90;;;16.40;99.90;;;;;;5021397;28;20596;-50
2021/06/03 04:09:15;;;;;;;6.43;5.27;;;16.40;99.90;;;;;;5021613;28;20456;-50
2021/06/03 04:11:42;;;;;;;11.93;5.57;;;16.30;99.90;;;;;;5019426;28;20491;-50
2021/06/03 04:14:09;;;;;;;5.93;4.90;;;16.20;99.90;;;;;;5020499;28;20461;-50
2021/06/03 04:16:37;;;;;;;6.10;5.50;;;16.10;99.90;;;;;;5020674;28;20460;-50
2021/06/03 04:19:03;;;;;;;7.10;5.30;;;16.00;99.90;;;;;;5021818;28;20475;-51
2021/06/03 04:21:30;;;;;;;5.83;5.33;;;16.00;99.90;;;;;;5025058;28;20485;-50
2021/06/03 04:23:56;;;;;;;7.03;4.90;;;15.90;99.90;;;;;;5021991;28;20463;-50
2021/06/03 04:26:23;;;;;;;5.20;4.70;;;15.90;99.90;;;;;;5018153;28;20489;-50
2021/06/03 04:28:49;;;;;;;8.20;4.90;;;16.10;99.90;;;;;;5021535;28;20468;-50
2021/06/03 04:31:16;;;;;;;5.57;5.07;;;16.10;99.90;;;;;;5020464;28;20484;-49
2021/06/03 04:33:44;;;;;;;5.10;4.60;;;16.20;99.90;;;;;;5018520;28;20986;-51
2021/06/03 04:36:11;;;;;;;7.07;4.80;;;16.30;99.90;;;;;;5022299;28;20471;-51
2021/06/03 04:38:37;;;;;;;4.93;4.43;;;16.50;99.90;;;;;;5024097;28;21163;-51
2021/06/03 04:41:04;;;;;;;5.33;4.83;;;16.40;99.90;;;;;;5023175;28;20476;-52
2021/06/03 04:43:30;;;;;;;5.00;4.60;;;16.40;99.90;;;;;;5027049;28;20469;-52
2021/06/03 04:45:57;;;;;;;6.73;5.10;;;16.50;99.90;;;;;;5023603;28;20958;-51
2021/06/03 04:48:24;;;;;;;5.93;4.20;;;16.60;99.90;;;;;;5022288;28;20465;-51
2021/06/03 04:50:52;;;;;;;6.73;5.93;;;16.70;99.90;;;;;;5025433;28;20503;-50
2021/06/03 04:53:19;;;;;;;18.60;6.37;;;16.80;99.90;;;;;;5022775;28;20464;-51
2021/06/03 04:55:46;;;;;;;5.50;5.00;;;17.00;99.90;;;;;;5023540;28;20864;-49
2021/06/03 04:58:13;;;;;;;6.40;5.80;;;17.30;99.90;;;;;;5021453;28;20997;-49
2021/06/03 05:00:42;;;;;;;6.40;4.60;;;17.80;99.90;;;;;;5022122;28;20508;-49
2021/06/03 05:03:10;;;;;;;4.97;4.47;;;18.50;99.90;;;;;;5022994;28;20460;-49
2021/06/03 05:05:38;;;;;;;5.27;4.73;;;19.20;99.90;;;;;;5022574;28;20476;-50
2021/06/03 05:08:07;;;;;;;5.03;4.50;;;19.90;99.90;;;;;;5024403;28;20480;-49
2021/06/03 05:10:35;;;;;;;5.03;4.53;;;20.40;99.90;;;;;;5021036;28;20539;-50
2021/06/03 05:13:02;;;;;;;5.30;4.40;;;21.00;99.90;;;;;;5023329;28;20493;-49
2021/06/03 05:15:30;;;;;;;5.03;4.33;;;21.40;99.90;;;;;;5023300;28;20577;-50
2021/06/03 05:17:58;;;;;;;5.20;4.70;;;22.00;99.90;;;;;;5019913;28;20492;-50
2021/06/03 05:20:26;;;;;;;5.47;4.37;;;22.60;99.90;;;;;;5022650;28;20461;-50
2021/06/03 05:22:57;;;;;;;5.50;4.50;;;23.00;99.90;;;;;;5024225;28;20461;-51
2021/06/03 05:25:27;;;;;;;4.90;4.43;;;23.40;99.90;;;;;;5019482;28;20471;-51
2021/06/03 05:27:54;;;;;;;5.37;4.30;;;23.70;99.90;;;;;;5022231;28;20487;-55
2021/06/03 05:30:24;;;;;;;6.03;4.87;;;23.80;99.90;;;;;;5021664;28;20465;-51
2021/06/03 05:32:50;;;;;;;5.10;4.60;;;23.90;99.90;;;;;;5023677;28;20472;-51
2021/06/03 05:35:20;;;;;;;6.20;4.47;;;23.60;99.90;;;;;;5021838;28;20465;-50
2021/06/03 05:37:47;;;;;;;5.30;4.83;;;23.60;99.90;;;;;;5023324;28;20511;-51
2021/06/03 05:40:17;;;;;;;5.17;4.67;;;24.20;99.90;;;;;;5023571;28;20491;-51
2021/06/03 05:42:45;;;;;;;4.47;4.13;;;24.60;99.50;;;;;;5024368;28;20531;-51
2021/06/03 05:45:13;;;;;;;6.47;4.50;;;24.90;99.50;;;;;;5022237;28;20465;-51
2021/06/03 05:47:40;;;;;;;5.27;4.77;;;25.40;98.30;;;;;;5029383;28;20484;-51
2021/06/03 05:50:09;;;;;;;5.57;4.80;;;25.60;97.00;;;;;;5022424;28;20476;-51
2021/06/03 05:52:36;;;;;;;6.07;5.00;;;25.50;96.40;;;;;;5021144;28;20465;-52
2021/06/03 05:55:04;;;;;;;6.90;4.70;;;25.00;97.30;;;;;;5027728;28;20453;-51
2021/06/03 05:57:31;;;;;;;5.63;4.33;;;25.00;96.50;;;;;;5021938;28;20494;-51
2021/06/03 05:59:59;;;;;;;4.80;4.40;;;25.00;97.20;;;;;;5020149;28;20468;-51
2021/06/03 06:02:32;;;;;;;4.67;4.27;;;25.20;96.60;;;;;;5022134;28;20479;-51
2021/06/03 06:07:43;;;;;;;6.77;4.80;;;25.30;95.90;;;;;;5022807;28;20499;-53
2021/06/03 06:10:10;;;;;;;4.77;4.37;;;25.50;96.70;;;;;;5020168;28;20850;-51
2021/06/03 06:12:37;;;;;;;4.73;4.27;;;25.90;94.40;;;;;;5020262;28;20461;-51
2021/06/03 06:15:06;;;;;;;5.13;4.20;;;25.80;95.70;;;;;;5019838;28;20462;-51
2021/06/03 06:17:33;;;;;;;4.57;4.17;;;26.20;95.60;;;;;;5021610;28;20829;-52
2021/06/03 06:19:59;;;;;;;4.60;4.20;;;26.40;95.00;;;;;;5022810;28;20465;-51
2021/06/03 06:22:26;;;;;;;4.90;4.40;;;26.90;94.30;;;;;;5021535;28;21013;-51
2021/06/03 06:24:52;;;;;;;9.50;4.20;;;27.30;93.10;;;;;;5020845;28;20495;-52
2021/06/03 06:27:19;;;;;;;4.00;3.70;;;27.60;91.80;;;;;;5023505;28;20661;-52
2021/06/03 06:29:45;;;;;;;4.20;3.90;;;28.00;92.10;;;;;;5019878;28;20461;-52
2021/06/03 06:32:13;;;;;;;5.03;4.40;;;28.20;90.10;;;;;;5029338;28;20472;-51
2021/06/03 06:34:40;;;;;;;4.73;4.43;;;27.80;89.70;;;;;;5013198;28;20460;-52
2021/06/03 06:37:06;;;;;;;6.23;4.80;;;27.30;91.60;;;;;;5019606;28;20437;-52
2021/06/03 06:39:33;;;;;;;5.10;4.60;;;27.00;90.80;;;;;;5032503;28;20515;-52
2021/06/03 06:41:59;;;;;;;4.90;4.40;;;27.20;91.00;;;;;;5030070;28;20477;-52
2021/06/03 06:44:26;;;;;;;4.90;4.50;;;26.90;88.90;;;;;;5022028;28;20464;-52
2021/06/03 06:46:52;;;;;;;4.67;4.27;;;27.10;90.30;;;;;;5032093;28;20477;-51
2021/06/03 06:49:20;;;;;;;5.00;3.97;;;26.90;89.50;;;;;;5031274;28;20451;-52
2021/06/03 06:51:47;;;;;;;4.47;3.70;;;27.10;90.40;;;;;;5028496;28;20932;-54
2021/06/03 06:54:13;;;;;;;4.40;3.90;;;27.10;90.50;;;;;;5028516;28;20464;-52
2021/06/03 06:56:40;;;;;;;4.63;4.10;;;27.20;90.30;;;;;;5030139;28;20446;-52
2021/06/03 06:59:06;;;;;;;6.13;3.93;;;27.50;90.40;;;;;;5029039;28;20449;-52
2021/06/03 07:01:33;;;;;;;4.87;4.43;;;27.90;90.40;;;;;;5031417;28;20481;-52
2021/06/03 07:03:59;;;;;;;4.50;4.10;;;28.00;88.30;;;;;;5025539;28;20448;-52
2021/06/03 07:06:27;;;;;;;5.80;4.23;;;27.70;90.00;;;;;;5023563;28;20450;-52
2021/06/03 07:08:54;;;;;;;4.57;4.10;;;28.30;87.20;;;;;;5023174;28;20453;-52
2021/06/03 07:11:24;;;;;;;4.47;4.07;;;28.40;90.40;;;;;;5030528;28;20477;-52
2021/06/03 07:13:51;;;;;;;4.50;4.10;;;28.50;85.80;;;;;;5020447;28;20504;-52
2021/06/03 07:16:18;;;;;;;5.60;4.63;;;28.70;85.40;;;;;;5019175;28;20528;-52
2021/06/03 07:18:45;;;;;;;4.93;4.43;;;28.60;86.60;;;;;;5019349;28;20498;-53
2021/06/03 07:21:12;;;;;;;4.83;4.43;;;29.10;88.50;;;;;;5027649;28;20473;-52
2021/06/03 07:23:41;;;;;;;4.80;4.40;;;29.20;82.60;;;;;;5022989;28;20880;-54
2021/06/03 07:26:07;;;;;;;4.47;4.17;;;28.90;82.20;;;;;;5025404;28;20483;-52
2021/06/03 07:28:34;;;;;;;4.37;3.97;;;29.20;83.60;;;;;;5030504;28;20510;-52
2021/06/03 07:31:00;;;;;;;3.83;3.57;;;29.00;82.20;;;;;;5033904;28;20484;-52
2021/06/03 07:33:27;;;;;;;5.20;3.80;;;29.20;84.40;;;;;;5023967;28;20477;-53
2021/06/03 07:35:54;;;;;;;8.30;4.43;;;29.10;81.80;;;;;;5026076;28;20453;-53
2021/06/03 07:38:20;;;;;;;4.17;3.87;;;29.00;84.00;;;;;;5024069;28;20440;-52
2021/06/03 07:40:48;;;;;;;4.03;3.73;;;28.80;81.10;;;;;;5026857;28;20468;-52
2021/06/03 07:43:15;;;;;;;4.60;4.20;;;28.70;80.30;;;;;;5030222;28;20871;-52
2021/06/03 07:45:43;;;;;;;5.37;4.70;;;28.40;82.70;;;;;;5025761;28;20496;-52
2021/06/03 07:48:12;;;;;;;3.70;3.43;;;28.60;84.40;;;;;;5023062;28;20480;-53
2021/06/03 07:50:40;;;;;;;4.20;3.90;;;28.80;81.30;;;;;;5024298;28;20508;-52
2021/06/03 07:53:08;;;;;;;4.50;4.20;;;28.90;79.30;;;;;;5027437;28;20460;-52
2021/06/03 07:55:35;;;;;;;4.50;4.10;;;28.90;82.70;;;;;;5030576;28;20452;-53
2021/06/03 07:58:06;;;;;;;4.23;3.93;;;28.60;83.10;;;;;;5016139;28;20494;-52
2021/06/03 08:00:35;;;;;;;4.17;3.77;;;28.80;81.90;;;;;;5027847;28;20483;-53
2021/06/03 08:03:02;;;;;;;3.97;3.70;;;28.70;79.10;;;;;;5025552;28;20453;-52
2021/06/03 08:05:29;;;;;;;4.20;3.80;;;29.10;76.90;;;;;;5023758;28;20480;-52
2021/06/03 08:07:56;;;;;;;4.03;3.73;;;29.60;80.10;;;;;;5027084;28;20553;-52
2021/06/03 08:10:26;;;;;;;4.67;4.27;;;29.80;77.20;;;;;;5011745;28;20527;-53
2021/06/03 08:12:53;;;;;;;4.10;3.67;;;29.70;80.60;;;;;;5016185;28;20922;-53
2021/06/03 08:15:24;;;;;;;3.87;3.67;;;30.20;79.00;;;;;;5018837;28;20563;-52
2021/06/03 08:17:51;;;;;;;4.13;3.73;;;30.30;77.30;;;;;;5014086;28;20512;-53
2021/06/03 08:20:20;;;;;;;4.37;4.00;;;30.50;77.90;;;;;;5016707;28;20441;-53
2021/06/03 08:22:47;;;;;;;4.60;4.20;;;30.90;77.20;;;;;;5017068;28;20452;-53
2021/06/03 08:25:15;;;;;;;3.90;3.60;;;30.80;74.50;;;;;;5009747;28;20872;-52
2021/06/03 08:27:41;;;;;;;4.40;4.10;;;31.00;75.40;;;;;;5025545;28;20481;-53
2021/06/03 08:30:10;;;;;;;4.27;3.87;;;31.60;73.40;;;;;;5022678;28;20453;-53
2021/06/03 08:32:38;;;;;;;5.30;4.70;;;31.80;78.00;;;;;;5026695;28;20875;-53
2021/06/03 08:35:07;;;;;;;4.43;4.00;;;32.10;74.40;;;;;;5027035;28;20834;-53
2021/06/03 08:37:33;;;;;;;4.80;4.10;;;32.50;77.30;;;;;;5016965;28;20445;-53
2021/06/03 08:40:00;;;;;;;4.50;4.20;;;32.40;71.90;;;;;;5028768;28;20475;-53
2021/06/03 08:42:26;;;;;;;5.33;4.03;;;31.90;76.40;;;;;;5028218;28;20850;-52
2021/06/03 08:44:53;;;;;;;4.57;4.27;;;31.70;78.40;;;;;;5023926;28;20449;-53
2021/06/03 08:47:20;;;;;;;4.87;4.47;;;31.70;79.90;;;;;;5028312;28;20488;-52
2021/06/03 08:49:48;;;;;;;3.90;3.60;;;31.20;73.60;;;;;;5018687;28;20960;-52
2021/06/03 08:52:14;;;;;;;4.90;4.40;;;31.60;77.10;;;;;;5027302;28;21001;-52
2021/06/03 08:54:41;;;;;;;5.20;4.80;;;31.80;79.20;;;;;;5028448;28;20465;-52
2021/06/03 08:57:08;;;;;;;4.87;4.47;;;30.80;77.40;;;;;;5028404;28;20487;-52
2021/06/03 08:59:35;;;;;;;4.80;4.40;;;30.40;79.70;;;;;;5027827;28;20851;-52
2021/06/03 09:02:02;;;;;;;4.60;4.10;;;29.00;82.90;;;;;;5023978;28;20473;-52
2021/06/03 09:04:28;;;;;;;4.17;3.87;;;28.80;79.90;;;;;;5026692;28;20535;-52
2021/06/03 09:06:57;;;;;;;4.30;4.00;;;29.00;83.20;;;;;;5023209;28;20528;-53
2021/06/03 09:09:28;;;;;;;4.80;4.40;;;28.80;81.30;;;;;;5024287;28;20448;-53
2021/06/03 09:12:18;;;;;;;4.40;4.10;;;28.90;84.80;;;;;;5029016;28;20460;-52
2021/06/03 09:14:44;;;;;;;4.43;4.03;;;28.50;85.50;;;;;;5008085;28;20532;-53
2021/06/03 09:17:12;;;;;;;4.47;4.07;;;29.00;83.50;;;;;;5014406;28;20453;-52
2021/06/03 09:19:51;;;;;;;3.63;3.43;;;29.40;80.80;;;;;;5021791;28;20452;-52
2021/06/03 09:22:36;;;;;;;3.70;3.40;;;28.70;83.60;;;;;;5033943;22;20639;-53
2021/06/03 09:25:33;;;;;;;2.87;2.67;;;28.90;88.30;;;;;;5010693;28;20437;-53
2021/06/03 09:28:24;;;;;;;2.93;2.73;;;29.30;87.80;;;;;;5002247;28;20793;-52
2021/06/03 09:30:57;;;;;;;2.43;2.30;;;28.20;90.80;;;;;;5005943;28;20485;-52
2021/06/03 09:33:55;;;;;;;2.90;2.70;;;26.60;93.10;;;;;;5006903;28;20470;-53
2021/06/03 09:36:28;;;;;;;3.30;2.50;;;25.80;94.10;;;;;;5011042;28;20453;-52
2021/06/03 09:39:04;;;;;;;3.63;2.50;;;25.50;94.70;;;;;;5013859;28;20449;-52
2021/06/03 09:41:31;;;;;;;2.70;2.60;;;25.70;95.10;;;;;;5013988;28;20560;-52
2021/06/03 09:44:05;;;;;;;3.03;2.83;;;25.10;93.70;;;;;;4997708;28;20453;-51
2021/06/03 09:46:38;;;;;;;3.20;2.50;;;25.00;94.80;;;;;;5013998;28;20446;-51
2021/06/03 09:49:06;;;;;;;2.53;2.33;;;25.10;95.30;;;;;;5013588;28;20468;-53
2021/06/03 09:51:37;;;;;;;2.80;2.37;;;25.40;96.10;;;;;;5013171;28;20469;-53
2021/06/03 09:54:07;;;;;;;3.83;3.50;;;25.30;96.10;;;;;;5013790;28;20458;-53
2021/06/03 09:56:36;;;;;;;2.63;2.37;;;25.30;95.70;;;;;;5014049;28;20445;-53
2021/06/03 09:59:05;;;;;;;2.50;2.30;;;25.70;96.80;;;;;;4995285;28;20830;-53
2021/06/03 10:02:03;;;;;;;2.70;2.50;;;26.50;94.90;;;;;;4994228;28;20466;-53
2021/06/03 10:04:41;;;;;;;3.60;2.73;;;27.00;93.00;;;;;;4930071;29;20519;-53
2021/06/03 10:07:16;;;;;;;3.03;2.30;;;25.90;95.20;;;;;;5001594;28;21036;-53
2021/06/03 10:09:59;;;;;;;2.37;2.27;;;25.10;94.80;;;;;;5013804;28;20864;-53
2021/06/03 10:12:41;;;;;;;3.87;3.00;;;25.00;96.20;;;;;;5013304;28;20470;-53
2021/06/03 10:15:14;;;;;;;2.50;2.30;;;24.90;96.20;;;;;;5013169;28;20994;-52
2021/06/03 10:17:48;;;;;;;2.97;2.40;;;24.60;97.70;;;;;;5013264;28;20476;-53
2021/06/03 10:20:17;;;;;;;2.10;1.90;;;24.90;96.40;;;;;;5009748;28;20465;-52
2021/06/03 10:22:49;;;;;;;2.57;2.10;;;25.10;96.20;;;;;;5011406;28;20982;-53
2021/06/03 10:25:18;;;;;;;2.27;2.10;;;24.80;96.00;;;;;;5001980;28;20456;-53
2021/06/03 10:27:48;;;;;;;2.17;1.97;;;25.00;96.50;;;;;;5013433;28;20481;-53
2021/06/03 10:30:17;;;;;;;2.23;2.00;;;25.00;96.00;;;;;;5011519;28;20453;-52
2021/06/03 10:32:45;;;;;;;5.87;2.20;;;24.80;95.70;;;;;;5007096;28;20952;-52
2021/06/03 10:35:14;;;;;;;1.97;1.87;;;25.00;98.10;;;;;;5008084;28;20449;-52
2021/06/03 10:37:43;;;;;;;2.80;2.10;;;25.30;95.70;;;;;;5008158;28;20455;-52
2021/06/03 10:40:12;;;;;;;2.13;2.00;;;24.60;96.40;;;;;;5000828;28;21231;-52
2021/06/03 10:42:41;;;;;;;2.33;2.23;;;24.70;96.50;;;;;;4995654;28;20451;-53
2021/06/03 10:45:10;;;;;;;2.40;2.10;;;25.20;97.60;;;;;;4993581;28;21007;-53
2021/06/03 10:47:37;;;;;;;3.30;2.60;;;25.40;95.70;;;;;;5006740;28;20523;-52
2021/06/03 10:50:07;;;;;;;3.60;2.13;;;25.60;96.70;;;;;;5003883;28;20450;-52
2021/06/03 10:52:34;;;;;;;2.47;2.27;;;25.80;96.60;;;;;;5012479;28;20506;-52
2021/06/03 10:55:01;;;;;;;2.20;2.10;;;25.60;97.50;;;;;;5011044;28;20469;-52
2021/06/03 10:57:50;;;;;;;2.47;2.13;;;25.90;96.20;;;;;;5011162;28;20499;-52
2021/06/03 11:00:26;;;;;;;2.60;2.20;;;26.10;94.80;;;;;;5009244;28;20456;-53
2021/06/03 11:02:56;;;;;;;2.47;2.17;;;26.60;94.10;;;;;;5010662;28;20487;-52
2021/06/03 11:05:24;;;;;;;2.23;2.00;;;26.70;96.00;;;;;;5009199;28;20454;-52
2021/06/03 11:07:51;;;;;;;2.70;1.90;;;27.20;95.10;;;;;;5010075;28;20474;-53
2021/06/03 11:10:27;;;;;;;4.30;2.30;;;27.20;95.30;;;;;;5010573;28;21105;-53
2021/06/03 11:13:19;;;;;;;3.30;2.40;;;27.20;92.90;;;;;;5010904;28;20579;-53
2021/06/03 11:16:10;;;;;;;2.70;2.50;;;26.60;94.00;;;;;;4992320;28;20458;-52
2021/06/03 11:19:11;;;;;;;2.30;2.10;;;26.10;96.20;;;;;;4992195;28;20453;-53
2021/06/03 11:21:58;;;;;;;2.37;2.20;;;25.80;94.60;;;;;;5004477;28;20497;-53
2021/06/03 11:24:47;;;;;;;2.53;2.23;;;25.60;95.70;;;;;;4994665;28;20995;-53
2021/06/03 11:27:19;;;;;;;3.93;1.83;;;25.60;96.50;;;;;;5012390;28;20481;-52
2021/06/03 11:30:01;;;;;;;2.27;2.07;;;25.60;95.40;;;;;;5011843;28;20461;-52
2021/06/03 11:32:30;;;;;;;2.90;2.07;;;25.80;97.10;;;;;;4992809;28;20461;-52
2021/06/03 11:34:58;;;;;;;1.90;1.80;;;25.90;97.20;;;;;;5002004;28;20476;-52
2021/06/03 11:37:26;;;;;;;2.97;2.10;;;25.80;97.00;;;;;;5006676;28;20970;-52
2021/06/03 11:39:54;;;;;;;2.40;2.23;;;25.40;96.50;;;;;;5012041;28;20446;-52
2021/06/03 11:42:35;;;;;;;2.40;2.20;;;25.40;95.60;;;;;;5012238;28;20500;-52
2021/06/03 11:45:28;;;;;;;1.97;1.87;;;25.00;95.50;;;;;;5011855;28;20445;-52
2021/06/03 11:48:23;;;;;;;3.67;2.63;;;25.30;98.40;;;;;;5011920;28;20473;-52
2021/06/03 11:50:57;;;;;;;2.47;2.20;;;25.40;95.10;;;;;;5011916;28;20473;-52
2021/06/03 11:53:25;;;;;;;2.70;2.07;;;25.50;95.90;;;;;;5004901;28;21039;-52
2021/06/03 11:55:55;;;;;;;2.37;2.17;;;25.20;95.80;;;;;;5005388;28;20515;-52
2021/06/03 11:58:24;;;;;;;2.13;1.93;;;25.20;97.20;;;;;;4992365;28;20447;-52
2021/06/03 12:00:54;;;;;;;2.97;2.40;;;25.40;98.20;;;;;;4992113;28;20902;-52
2021/06/03 12:03:26;;;;;;;3.90;2.37;;;25.70;96.00;;;;;;4992269;28;20913;-52
2021/06/03 12:05:55;;;;;;;3.93;2.60;;;25.80;97.90;;;;;;4992433;28;20457;-52
2021/06/03 12:08:34;;;;;;;2.70;2.50;;;26.30;96.40;;;;;;5000823;28;20488;-52
2021/06/03 12:11:02;;;;;;;2.93;2.40;;;26.20;95.50;;;;;;5010439;28;20551;-52
2021/06/03 12:13:28;;;;;;;2.27;2.07;;;26.00;96.50;;;;;;5011495;28;20460;-52
2021/06/03 12:15:57;;;;;;;2.40;2.20;;;25.80;97.50;;;;;;5010849;28;20450;-52
2021/06/03 12:18:31;;;;;;;2.70;2.47;;;25.60;97.60;;;;;;5010903;28;20441;-52
2021/06/03 12:20:57;;;;;;;2.50;2.40;;;25.30;96.90;;;;;;5002320;28;20474;-52
2021/06/03 12:23:24;;;;;;;2.70;2.50;;;25.10;96.70;;;;;;4992219;28;20442;-52
2021/06/03 12:25:51;;;;;;;2.70;2.47;;;25.20;96.60;;;;;;4996511;28;20536;-52
2021/06/03 12:28:17;;;;;;;2.93;2.67;;;25.20;96.80;;;;;;5010774;28;20481;-52
2021/06/03 12:30:44;;;;;;;2.80;2.60;;;25.70;95.30;;;;;;5010684;28;21028;-53
2021/06/03 12:33:14;;;;;;;3.10;2.67;;;26.00;95.70;;;;;;5006920;28;20461;-53
2021/06/03 12:35:43;;;;;;;2.63;2.53;;;25.90;94.80;;;;;;5010096;28;20449;-52
2021/06/03 12:38:11;;;;;;;2.80;2.60;;;26.10;94.30;;;;;;5010861;28;20491;-52
2021/06/03 12:40:39;;;;;;;2.90;2.70;;;26.30;95.00;;;;;;5010467;28;20477;-52
2021/06/03 12:43:07;;;;;;;4.53;2.97;;;26.60;92.70;;;;;;4996316;28;20975;-53
2021/06/03 12:45:37;;;;;;;2.97;2.77;;;26.80;92.20;;;;;;5011171;28;20952;-52
2021/06/03 12:48:06;;;;;;;3.83;2.80;;;27.00;92.60;;;;;;4998370;28;20474;-52
2021/06/03 12:50:37;;;;;;;3.07;2.87;;;27.10;92.70;;;;;;4994038;28;20466;-52
2021/06/03 12:53:08;;;;;;;2.60;2.40;;;26.80;94.50;;;;;;5006394;28;20445;-52
2021/06/03 12:55:35;;;;;;;3.10;2.87;;;26.50;93.90;;;;;;5010374;28;20450;-52
2021/06/03 12:58:06;;;;;;;3.00;2.80;;;26.40;94.60;;;;;;5013228;28;20453;-52